createdAt,value
2024-01-15T00:00:29.562Z,27.77
2024-01-15T00:02:56.004Z,31.57
2024-01-15T00:05:22.471Z,31.13
2024-01-15T00:07:48.878Z,25.70
2024-01-15T00:10:15.404Z,29.30
2024-01-15T00:12:42.041Z,32.20
2024-01-15T00:15:08.768Z,30.50
2024-01-15T00:17:35.436Z,29.57
2024-01-15T00:20:02.014Z,28.77
2024-01-15T00:22:28.878Z,30.57
2024-01-15T00:24:55.438Z,33.73
2024-01-15T00:27:22.227Z,35.13
2024-01-15T00:29:49.323Z,34.13
2024-01-15T00:32:15.899Z,35.13
2024-01-15T00:34:42.456Z,34.40
2024-01-15T00:37:09.067Z,33.03
2024-01-15T00:39:35.531Z,33.50
2024-01-15T00:42:02.051Z,35.60
2024-01-15T00:44:28.494Z,36.73
2024-01-15T00:46:54.960Z,30.17
2024-01-15T00:49:21.650Z,33.17
2024-01-15T00:51:48.617Z,33.23
2024-01-15T00:54:15.206Z,28.83
2024-01-15T00:56:41.751Z,30.27
2024-01-15T00:59:11.422Z,25.90
2024-01-15T01:01:39.186Z,27.37
2024-01-15T01:04:21.212Z,32.60
2024-01-15T01:06:47.883Z,32.43
2024-01-15T01:09:14.899Z,28.33
2024-01-15T01:11:41.620Z,31.00
2024-01-15T01:14:08.225Z,27.10
2024-01-15T01:16:39.784Z,29.53
2024-01-15T01:19:07.931Z,33.47
2024-01-15T01:21:35.111Z,29.90
2024-01-15T01:24:01.847Z,34.87
2024-01-15T01:26:28.355Z,32.17
2024-01-15T01:28:56.441Z,29.13
2024-01-15T01:31:23.193Z,31.37
2024-01-15T01:33:49.862Z,31.73
2024-01-15T01:36:16.466Z,35.90
2024-01-15T01:38:43.101Z,34.23
2024-01-15T01:41:09.658Z,29.77
2024-01-15T01:43:36.137Z,29.80
2024-01-15T01:46:04.045Z,35.60
2024-01-15T01:48:31.107Z,33.97
2024-01-15T01:51:00.299Z,34.87
2024-01-15T01:53:27.745Z,38.97
2024-01-15T01:55:54.808Z,35.67
2024-01-15T01:58:21.431Z,36.80
2024-01-15T02:00:48.478Z,38.57
2024-01-15T02:03:15.023Z,40.47
2024-01-15T02:05:41.784Z,41.63
2024-01-15T02:08:08.388Z,43.40
2024-01-15T02:10:34.916Z,38.37
2024-01-15T02:13:01.374Z,35.90
2024-01-15T02:15:27.930Z,37.00
2024-01-15T02:18:02.441Z,35.10
2024-01-15T02:20:29.449Z,35.63
2024-01-15T02:23:05.075Z,35.47
2024-01-15T02:25:31.640Z,37.07
2024-01-15T02:27:58.133Z,35.47
2024-01-15T02:30:25.985Z,37.63
2024-01-15T02:32:52.788Z,36.83
2024-01-15T02:35:19.328Z,40.67
2024-01-15T02:37:45.862Z,34.43
2024-01-15T02:40:12.532Z,41.00
2024-01-15T02:42:38.967Z,39.90
2024-01-15T02:45:06.063Z,39.80
2024-01-15T02:47:32.614Z,36.87
2024-01-15T02:49:59.179Z,40.37
2024-01-15T02:52:25.763Z,36.97
2024-01-15T02:54:52.435Z,38.53
2024-01-15T02:57:18.988Z,37.70
2024-01-15T02:59:45.481Z,39.47
2024-01-15T03:02:11.943Z,36.30
2024-01-15T03:04:38.493Z,35.17
2024-01-15T03:07:05.174Z,33.07
2024-01-15T03:09:31.687Z,34.57
2024-01-15T03:11:58.467Z,34.07
2024-01-15T03:14:27.253Z,34.47
2024-01-15T03:16:54.168Z,31.47
2024-01-15T03:19:20.841Z,33.93
2024-01-15T03:21:47.448Z,32.67
2024-01-15T03:24:14.036Z,32.03
2024-01-15T03:26:40.709Z,33.73
2024-01-15T03:29:08.390Z,32.53
2024-01-15T03:31:34.966Z,31.27
2024-01-15T03:34:01.964Z,33.90
2024-01-15T03:36:28.497Z,33.60
2024-01-15T03:38:54.959Z,30.73
2024-01-15T03:41:21.462Z,35.77
2024-01-15T03:43:47.978Z,34.53
2024-01-15T03:46:14.401Z,35.50
2024-01-15T03:48:41.036Z,33.57
2024-01-15T03:51:07.729Z,36.13
2024-01-15T03:53:34.337Z,31.33
2024-01-15T03:56:00.820Z,32.57
2024-01-15T03:58:27.339Z,31.20
2024-01-15T04:00:53.868Z,31.93
2024-01-15T04:03:20.490Z,30.70
2024-01-15T04:05:47.023Z,29.67
2024-01-15T04:08:13.477Z,30.27
2024-01-15T04:10:39.916Z,31.03
2024-01-15T04:13:06.502Z,31.80
2024-01-15T04:15:33.026Z,28.83
2024-01-15T04:17:59.584Z,33.00
2024-01-15T04:20:26.158Z,27.80
2024-01-15T04:22:53.297Z,25.47
2024-01-15T04:25:19.930Z,25.13
2024-01-15T04:27:46.632Z,23.70
2024-01-15T04:30:13.606Z,25.83
2024-01-15T04:32:40.202Z,25.40
2024-01-15T04:35:06.942Z,24.30
2024-01-15T04:37:33.410Z,25.00
2024-01-15T04:39:59.961Z,26.90
2024-01-15T04:42:26.534Z,25.23
2024-01-15T04:44:52.983Z,23.37
2024-01-15T04:47:19.555Z,26.00
2024-01-15T04:49:46.093Z,26.80
2024-01-15T04:52:13.830Z,28.53
2024-01-15T04:54:40.307Z,24.57
2024-01-15T04:57:07.067Z,30.97
2024-01-15T04:59:33.536Z,29.87
2024-01-15T05:02:00.024Z,34.27
2024-01-15T05:04:26.570Z,36.03
2024-01-15T05:06:53.097Z,29.47
2024-01-15T05:09:38.047Z,31.33
2024-01-15T05:12:05.026Z,33.43
2024-01-15T05:14:31.518Z,34.80
2024-01-15T05:16:58.028Z,31.37
2024-01-15T05:19:24.519Z,34.80
2024-01-15T05:21:51.165Z,36.27
2024-01-15T05:24:17.863Z,35.90
2024-01-15T05:26:44.477Z,34.93
2024-01-15T05:29:11.193Z,36.40
2024-01-15T05:31:38.060Z,35.23
2024-01-15T05:34:04.952Z,46.93
2024-01-15T05:36:31.737Z,33.57
2024-01-15T05:38:58.294Z,34.80
2024-01-15T05:41:24.751Z,30.93
2024-01-15T05:43:51.268Z,33.97
2024-01-15T05:46:17.716Z,31.27
2024-01-15T05:48:44.320Z,32.37
2024-01-15T05:51:11.442Z,31.37
2024-01-15T05:53:41.327Z,31.80
2024-01-15T05:56:07.821Z,32.23
2024-01-15T05:58:34.304Z,31.83
2024-01-15T06:01:00.881Z,32.70
2024-01-15T06:03:27.953Z,33.03
2024-01-15T06:05:54.541Z,34.73
2024-01-15T06:08:22.029Z,36.30
2024-01-15T06:10:48.502Z,32.90
2024-01-15T06:13:15.028Z,33.57
2024-01-15T06:15:41.504Z,36.93
2024-01-15T06:18:08.458Z,36.50
2024-01-15T06:20:35.017Z,31.77
2024-01-15T06:23:01.439Z,33.87
2024-01-15T06:25:27.885Z,35.27
2024-01-15T06:27:54.635Z,37.13
2024-01-15T06:30:21.241Z,42.93
2024-01-15T06:32:47.895Z,41.27
2024-01-15T06:35:14.549Z,39.60
2024-01-15T06:37:41.038Z,45.10
2024-01-15T06:40:08.298Z,89.60
2024-01-15T06:42:39.681Z,67.90
2024-01-15T06:45:06.707Z,46.87
2024-01-15T06:47:33.652Z,42.07
2024-01-15T06:50:00.432Z,48.30
2024-01-15T06:52:26.948Z,49.87
2024-01-15T06:54:53.427Z,46.23
2024-01-15T06:57:21.116Z,47.80
2024-01-15T06:59:47.568Z,42.10
2024-01-15T07:02:14.097Z,46.07
2024-01-15T07:04:43.567Z,42.27
2024-01-15T07:07:10.516Z,47.67
2024-01-15T07:09:37.037Z,45.40
2024-01-15T07:12:04.188Z,39.33
2024-01-15T07:14:49.481Z,84.77
2024-01-15T07:17:35.558Z,42.13
2024-01-15T07:20:02.621Z,40.17
2024-01-15T07:22:29.101Z,35.43
2024-01-15T07:24:55.783Z,36.60
2024-01-15T07:27:22.346Z,40.30
2024-01-15T07:29:50.004Z,34.23
2024-01-15T07:32:17.007Z,35.60
2024-01-15T07:34:43.604Z,28.37
2024-01-15T07:37:10.331Z,32.30
2024-01-15T07:39:36.956Z,32.03
2024-01-15T07:42:03.662Z,32.17
2024-01-15T07:44:30.149Z,109.83
2024-01-15T07:46:56.632Z,35.27
2024-01-15T07:49:24.740Z,29.60
2024-01-15T07:51:51.333Z,25.43
2024-01-15T07:54:17.954Z,31.50
2024-01-15T07:57:04.263Z,27.73
2024-01-15T07:59:30.725Z,34.57
2024-01-15T08:01:57.337Z,28.53
2024-01-15T08:04:24.101Z,25.77
2024-01-15T08:06:50.779Z,29.37
2024-01-15T08:09:17.675Z,30.30
2024-01-15T08:11:44.540Z,80.60
2024-01-15T08:14:11.433Z,26.93
2024-01-15T08:16:38.629Z,29.63
2024-01-15T08:19:05.373Z,31.60
2024-01-15T08:21:33.037Z,28.03
2024-01-15T08:24:00.733Z,27.53
2024-01-15T08:26:27.319Z,27.57
2024-01-15T08:28:53.822Z,31.10
2024-01-15T08:31:20.417Z,30.90
2024-01-15T08:33:47.285Z,28.87
2024-01-15T08:36:14.178Z,30.00
2024-01-15T08:38:40.658Z,28.63
2024-01-15T08:41:07.176Z,28.07
2024-01-15T08:43:33.659Z,31.63
2024-01-15T08:46:00.537Z,64.93
2024-01-15T08:48:30.016Z,38.13
2024-01-15T08:50:57.610Z,27.33
2024-01-15T08:53:24.510Z,27.87
2024-01-15T08:55:51.094Z,26.87
2024-01-15T08:58:18.969Z,29.03
2024-01-15T09:00:46.064Z,26.77
2024-01-15T09:03:13.105Z,25.70
2024-01-15T09:05:40.103Z,27.10
2024-01-15T09:08:06.813Z,22.40
2024-01-15T09:10:33.509Z,22.63
2024-01-15T09:13:01.416Z,21.20
2024-01-15T09:15:28.881Z,19.23
2024-01-15T09:17:55.953Z,23.73
2024-01-15T09:20:22.623Z,19.33
2024-01-15T09:22:49.147Z,39.13
2024-01-15T09:25:16.066Z,18.90
2024-01-15T09:27:43.279Z,21.23
2024-01-15T09:30:10.944Z,17.47
2024-01-15T09:32:37.868Z,15.73
2024-01-15T09:35:05.071Z,15.80
2024-01-15T09:37:41.713Z,19.90
2024-01-15T09:40:21.477Z,18.20
2024-01-15T09:42:48.473Z,17.83
2024-01-15T09:45:16.064Z,19.03
2024-01-15T09:47:48.764Z,20.07
2024-01-15T09:50:18.331Z,18.80
2024-01-15T09:52:45.970Z,18.83
2024-01-15T09:55:13.828Z,15.80
2024-01-15T09:57:40.525Z,19.27
2024-01-15T10:00:08.084Z,15.80
2024-01-15T10:02:53.780Z,16.10
2024-01-15T10:05:20.456Z,18.53
2024-01-15T10:07:47.423Z,17.53
2024-01-15T10:10:14.149Z,18.67
2024-01-15T10:12:41.282Z,23.07
2024-01-15T10:15:10.957Z,19.47
2024-01-15T10:17:41.362Z,20.33
2024-01-15T10:20:12.547Z,20.40
2024-01-15T10:22:47.506Z,22.57
2024-01-15T10:25:14.933Z,18.03
2024-01-15T10:27:44.954Z,16.57
2024-01-15T10:30:13.324Z,15.27
2024-01-15T10:32:40.233Z,16.83
2024-01-15T10:35:08.522Z,15.67
2024-01-15T10:37:35.438Z,13.17
2024-01-15T10:40:06.066Z,15.90
2024-01-15T10:42:32.765Z,16.97
2024-01-15T10:44:59.433Z,14.10
2024-01-15T10:47:26.737Z,16.83
2024-01-15T10:49:54.011Z,19.73
2024-01-15T10:52:21.058Z,16.93
2024-01-15T10:54:48.640Z,21.47
2024-01-15T10:57:17.082Z,19.83
2024-01-15T10:59:43.710Z,20.43
2024-01-15T11:02:14.244Z,21.50
2024-01-15T11:04:40.845Z,22.93
2024-01-15T11:07:07.971Z,46.17
2024-01-15T11:09:35.978Z,34.20
2024-01-15T11:12:13.744Z,22.10
2024-01-15T11:14:53.602Z,22.07
2024-01-15T11:17:20.169Z,23.73
2024-01-15T11:19:51.696Z,20.90
2024-01-15T11:22:47.046Z,21.23
2024-01-15T11:25:17.329Z,22.50
2024-01-15T11:27:49.015Z,18.63
2024-01-15T11:30:16.145Z,20.17
2024-01-15T11:32:43.580Z,22.13
2024-01-15T11:35:11.174Z,22.77
2024-01-15T11:37:58.606Z,20.67
2024-01-15T11:40:35.232Z,23.87
2024-01-15T11:43:01.952Z,33.53
2024-01-15T11:45:28.870Z,22.47
2024-01-15T11:48:15.504Z,19.93
2024-01-15T11:50:46.630Z,18.87
2024-01-15T11:53:27.265Z,19.13
2024-01-15T11:55:54.286Z,16.97
2024-01-15T11:58:26.348Z,18.17
2024-01-15T12:00:54.233Z,20.33
2024-01-15T12:03:24.778Z,16.90
2024-01-15T12:05:53.447Z,15.30
2024-01-15T12:08:24.499Z,18.00
2024-01-15T12:10:51.385Z,15.77
2024-01-15T12:13:21.399Z,14.13
2024-01-15T12:15:49.354Z,15.67
2024-01-15T12:18:17.956Z,16.40
2024-01-15T12:20:47.809Z,12.83
2024-01-15T12:23:18.617Z,11.23
2024-01-15T12:26:00.991Z,9.73
2024-01-15T12:28:28.802Z,11.83
2024-01-15T12:30:56.912Z,12.10
2024-01-15T12:33:23.618Z,12.97
2024-01-15T12:35:50.186Z,11.03
2024-01-15T12:38:19.968Z,10.40
2024-01-15T12:40:49.002Z,9.53
2024-01-15T12:43:15.579Z,10.93
2024-01-15T12:45:42.123Z,12.73
2024-01-15T12:48:08.824Z,11.43
2024-01-15T12:50:36.646Z,15.20
2024-01-15T12:53:03.520Z,12.07
2024-01-15T12:55:30.095Z,13.50
2024-01-15T12:57:57.045Z,13.87
2024-01-15T13:00:23.746Z,9.50
2024-01-15T13:02:51.587Z,8.67
2024-01-15T13:05:19.420Z,14.57
2024-01-15T13:08:05.305Z,11.13
2024-01-15T13:10:32.735Z,9.00
2024-01-15T13:12:59.324Z,11.50
2024-01-15T13:15:26.035Z,10.30
2024-01-15T13:17:52.719Z,11.20
2024-01-15T13:20:34.196Z,10.10
2024-01-15T13:23:00.739Z,11.13
2024-01-15T13:25:27.341Z,10.90
2024-01-15T13:27:53.785Z,9.43
2024-01-15T13:30:20.348Z,12.50
2024-01-15T13:32:47.967Z,13.10
2024-01-15T13:35:14.895Z,9.80
2024-01-15T13:37:44.282Z,10.30
2024-01-15T13:40:17.198Z,9.43
2024-01-15T13:42:43.909Z,11.57
2024-01-15T13:45:10.485Z,8.93
2024-01-15T13:47:38.426Z,8.47
2024-01-15T13:50:05.258Z,8.97
2024-01-15T13:52:31.781Z,11.30
2024-01-15T13:55:17.369Z,10.53
2024-01-15T13:57:44.270Z,7.23
2024-01-15T14:00:13.713Z,7.90
2024-01-15T14:02:40.602Z,9.30
2024-01-15T14:05:07.647Z,7.83
2024-01-15T14:07:34.137Z,9.80
2024-01-15T14:10:00.658Z,7.87
2024-01-15T14:12:27.797Z,6.20
2024-01-15T14:14:54.334Z,8.20
2024-01-15T14:17:20.848Z,6.13
2024-01-15T14:19:47.386Z,7.27
2024-01-15T14:22:13.935Z,5.37
2024-01-15T14:24:40.557Z,9.87
2024-01-15T14:27:08.167Z,7.03
2024-01-15T14:29:34.738Z,7.50
2024-01-15T14:32:01.437Z,5.83
2024-01-15T14:34:28.167Z,6.50
2024-01-15T14:36:55.869Z,7.73
2024-01-15T14:39:23.596Z,5.40
2024-01-15T14:41:50.366Z,6.67
2024-01-15T14:44:16.816Z,6.67
2024-01-15T14:46:43.451Z,9.07
2024-01-15T14:49:10.065Z,6.93
2024-01-15T14:51:36.589Z,7.03
2024-01-15T14:54:03.211Z,6.63
2024-01-15T14:56:30.163Z,6.33
2024-01-15T14:58:56.731Z,6.30
2024-01-15T15:01:24.468Z,8.40
2024-01-15T15:03:51.153Z,6.07
2024-01-15T15:06:18.013Z,5.67
2024-01-15T15:08:50.381Z,5.90
2024-01-15T15:11:16.853Z,7.73
2024-01-15T15:13:45.874Z,6.57
2024-01-15T15:16:14.394Z,7.77
2024-01-15T15:18:43.953Z,8.77
2024-01-15T15:21:11.069Z,16.67
2024-01-15T15:23:56.667Z,8.00
2024-01-15T15:26:23.614Z,7.77
2024-01-15T15:28:50.277Z,8.27
2024-01-15T15:31:16.866Z,8.77
2024-01-15T15:33:43.551Z,14.63
2024-01-15T15:36:10.249Z,9.47
2024-01-15T15:38:36.887Z,7.07
2024-01-15T15:41:03.549Z,6.13
2024-01-15T15:43:30.629Z,5.30
2024-01-15T15:46:01.077Z,8.20
2024-01-15T15:48:28.100Z,5.53
2024-01-15T15:50:54.905Z,8.00
2024-01-15T15:53:23.077Z,8.03
2024-01-15T15:55:49.676Z,6.73
2024-01-15T15:58:16.213Z,9.17
2024-01-15T16:00:42.998Z,8.93
2024-01-15T16:03:09.795Z,10.03
2024-01-15T16:05:42.452Z,10.70
2024-01-15T16:08:16.423Z,8.03
2024-01-15T16:10:42.934Z,9.63
2024-01-15T16:13:28.121Z,8.50
2024-01-15T16:23:08.550Z,8.43
2024-01-15T16:23:21.827Z,10.67
2024-01-15T16:23:36.628Z,12.20
2024-01-15T16:24:21.704Z,9.07
2024-01-15T16:26:55.062Z,11.30
2024-01-15T16:29:40.268Z,10.67
2024-01-15T16:32:06.947Z,10.60
2024-01-15T16:34:33.879Z,9.87
2024-01-15T16:37:00.397Z,9.90
2024-01-15T16:39:26.830Z,9.80
2024-01-15T16:41:53.577Z,9.57
2024-01-15T16:44:20.119Z,7.97
2024-01-15T16:46:46.675Z,9.20
2024-01-15T16:49:13.263Z,13.90
2024-01-15T16:51:39.818Z,10.57
2024-01-15T16:54:06.274Z,10.37
2024-01-15T16:56:32.890Z,10.33
2024-01-15T16:58:59.664Z,11.10
2024-01-15T17:01:26.275Z,8.07
2024-01-15T17:03:53.399Z,9.67
2024-01-15T17:06:19.856Z,12.67
2024-01-15T17:08:46.374Z,6.30
2024-01-15T17:11:13.170Z,11.63
2024-01-15T17:13:39.622Z,9.73
2024-01-15T17:16:06.430Z,8.07
2024-01-15T17:18:33.030Z,12.87
2024-01-15T17:20:59.518Z,9.37
2024-01-15T17:23:26.042Z,10.70
2024-01-15T17:25:52.569Z,10.57
2024-01-15T17:28:31.015Z,9.87
2024-01-15T17:30:58.836Z,9.90
2024-01-15T17:33:25.770Z,11.07
2024-01-15T17:35:57.631Z,12.47
2024-01-15T17:38:43.465Z,9.97
2024-01-15T17:41:23.352Z,9.57
2024-01-15T17:43:49.925Z,8.33
2024-01-15T17:46:16.448Z,8.97
2024-01-15T17:48:43.515Z,8.43
2024-01-15T17:51:10.124Z,11.90
2024-01-15T17:53:36.630Z,30.03
2024-01-15T17:56:03.337Z,12.43
2024-01-15T17:58:31.375Z,11.27
2024-01-15T18:01:00.584Z,11.20
2024-01-15T18:03:29.517Z,9.73
2024-01-15T18:05:56.644Z,15.23
2024-01-15T18:08:23.274Z,13.07
2024-01-15T18:10:49.776Z,13.30
2024-01-15T18:13:16.479Z,9.90
2024-01-15T18:15:43.079Z,9.97
2024-01-15T18:18:10.577Z,17.17
2024-01-15T18:20:37.538Z,13.57
2024-01-15T18:23:04.640Z,11.30
2024-01-15T18:25:31.818Z,11.77
2024-01-15T18:27:58.324Z,19.00
2024-01-15T18:30:24.999Z,16.17
2024-01-15T18:32:51.650Z,15.93
2024-01-15T18:35:18.170Z,14.17
2024-01-15T18:37:46.989Z,14.93
2024-01-15T18:40:14.396Z,14.80
2024-01-15T18:42:40.982Z,15.87
2024-01-15T18:45:07.986Z,9.37
2024-01-15T18:47:34.551Z,12.93
2024-01-15T18:50:01.046Z,10.50
2024-01-15T18:52:27.802Z,13.90
2024-01-15T18:54:54.319Z,12.90
2024-01-15T18:57:20.837Z,10.83
2024-01-15T18:59:47.452Z,12.77
2024-01-15T19:02:14.115Z,12.83
2024-01-15T19:04:40.791Z,12.50
2024-01-15T19:07:07.627Z,12.63
2024-01-15T19:09:34.454Z,17.97
2024-01-15T19:12:01.143Z,13.07
2024-01-15T19:14:27.605Z,13.63
2024-01-15T19:16:55.252Z,14.03
2024-01-15T19:19:39.792Z,17.17
2024-01-15T19:22:06.482Z,16.67
2024-01-15T19:24:32.998Z,18.63
2024-01-15T19:26:59.522Z,15.63
2024-01-15T19:29:26.337Z,18.40
2024-01-15T19:31:52.845Z,18.10
2024-01-15T19:34:20.060Z,19.57
2024-01-15T19:36:46.595Z,17.03
2024-01-15T19:39:18.453Z,16.13
2024-01-15T19:41:45.039Z,16.93
2024-01-15T19:44:16.456Z,21.60
2024-01-15T19:47:02.054Z,21.07
2024-01-15T19:49:29.504Z,20.37
2024-01-15T19:51:56.012Z,55.63
2024-01-15T19:54:22.477Z,20.43
2024-01-15T19:56:49.057Z,21.60
2024-01-15T19:59:15.702Z,21.83
2024-01-15T20:01:42.197Z,19.17
2024-01-15T20:04:08.639Z,21.90
2024-01-15T20:06:35.878Z,15.63
2024-01-15T20:09:02.502Z,15.63
2024-01-15T20:11:29.055Z,20.67
2024-01-15T20:13:55.661Z,22.37
2024-01-15T20:16:22.589Z,22.13
2024-01-15T20:18:49.288Z,17.53
2024-01-15T20:21:16.399Z,13.70
2024-01-15T20:23:50.813Z,17.20
2024-01-15T20:26:22.240Z,20.27
2024-01-15T20:28:48.945Z,17.13
2024-01-15T20:31:15.456Z,17.67
2024-01-15T20:33:42.284Z,17.17
2024-01-15T20:36:09.389Z,14.20
2024-01-15T20:38:37.077Z,14.47
2024-01-15T20:41:19.061Z,13.60
2024-01-15T20:43:45.829Z,16.27
2024-01-15T20:46:12.583Z,17.13
2024-01-15T20:48:39.778Z,15.63
2024-01-15T20:51:06.564Z,13.37
2024-01-15T20:53:33.977Z,13.63
2024-01-15T20:56:00.705Z,14.63
2024-01-15T20:58:27.386Z,20.67
2024-01-15T21:00:54.032Z,12.50
2024-01-15T21:03:20.608Z,12.37
2024-01-15T21:05:47.242Z,48.77
2024-01-15T21:08:13.929Z,25.93
2024-01-15T21:10:41.352Z,26.90
2024-01-15T21:13:07.909Z,15.30
2024-01-15T21:15:34.892Z,13.70
2024-01-15T21:18:02.265Z,15.80
2024-01-15T21:20:28.879Z,15.57
2024-01-15T21:22:55.497Z,13.73
2024-01-15T21:25:22.231Z,17.03
2024-01-15T21:27:48.797Z,18.33
2024-01-15T21:30:18.542Z,15.27
2024-01-15T21:32:45.492Z,15.70
2024-01-15T21:35:14.801Z,13.90
2024-01-15T21:37:42.095Z,18.63
2024-01-15T21:40:11.140Z,16.17
2024-01-15T21:42:38.725Z,17.03
2024-01-15T21:45:08.140Z,16.17
2024-01-15T21:47:36.277Z,16.53
2024-01-15T21:50:05.071Z,20.77
2024-01-15T21:52:31.590Z,18.83
2024-01-15T21:54:58.090Z,11.60
2024-01-15T21:57:24.736Z,14.37
2024-01-15T21:59:51.223Z,15.10
2024-01-15T22:02:17.836Z,18.90
2024-01-15T22:04:44.353Z,18.80
2024-01-15T22:07:10.807Z,15.93
2024-01-15T22:09:37.283Z,17.80
2024-01-15T22:12:04.056Z,15.87
2024-01-15T22:14:30.684Z,16.73
2024-01-15T22:16:57.207Z,13.80
2024-01-15T22:19:23.921Z,15.53
2024-01-15T22:21:51.653Z,14.83
2024-01-15T22:24:18.268Z,17.80
2024-01-15T22:26:44.987Z,16.80
2024-01-15T22:29:11.550Z,20.23
2024-01-15T22:31:38.110Z,16.20
2024-01-15T22:34:05.537Z,16.17
2024-01-15T22:36:32.609Z,14.83
2024-01-15T22:38:59.070Z,17.00
2024-01-15T22:41:25.592Z,16.03
2024-01-15T22:43:52.120Z,18.40
2024-01-15T22:46:18.890Z,15.50
2024-01-15T22:48:45.712Z,14.60
2024-01-15T22:51:12.213Z,15.10
2024-01-15T22:53:38.801Z,18.27
2024-01-15T22:56:05.563Z,16.10
2024-01-15T22:58:32.068Z,16.83
2024-01-15T23:01:00.419Z,15.00
2024-01-15T23:03:26.980Z,14.57
2024-01-15T23:05:54.054Z,15.63
2024-01-15T23:08:39.166Z,12.20
2024-01-15T23:11:05.950Z,14.17
2024-01-15T23:13:32.393Z,17.63
2024-01-15T23:15:58.986Z,15.33
2024-01-15T23:18:25.764Z,13.60
2024-01-15T23:20:52.417Z,16.00
2024-01-15T23:23:18.994Z,13.60
2024-01-15T23:25:45.504Z,16.60
2024-01-15T23:28:12.117Z,13.47
2024-01-15T23:30:38.643Z,16.47
2024-01-15T23:33:05.515Z,11.87
2024-01-15T23:35:32.280Z,18.87
2024-01-15T23:37:58.819Z,13.03
2024-01-15T23:40:25.253Z,16.00
2024-01-15T23:42:51.710Z,15.60
2024-01-15T23:45:18.363Z,15.43
2024-01-15T23:47:45.219Z,14.50
2024-01-15T23:50:12.051Z,16.00
2024-01-15T23:52:38.797Z,18.37
2024-01-15T23:55:06.344Z,17.10
2024-01-15T23:57:32.813Z,13.97
2024-01-15T23:59:59.273Z,18.87
